Time,TemperatureF,DewpointF,PressureIn,WindDirection,WindDirectionDegrees,WindSpeedMPH,WindSpeedGustMPH,Humidity,HourlyPrecipIn,Conditions,Clouds,dailyrainin,SolarRadiationWatts/m^2,SoftwareType,DateUTC
2013-03-14 00:00:00,49.3,30.4,30.08,North,8,1.0,1.0,48,0.00,CLR,,0.00,0.0,WeatherDisplay:10.37,2013-03-14 04:00:00,
2013-03-14 00:01:00,49.4,30.5,30.08,WSW,256,1.2,1.2,48,0.00,CLR,,0.00,0.0,WeatherDisplay:10.37,2013-03-14 04:01:00,
2013-03-14 00:06:00,49.3,30.9,30.08,WNW,302,1.2,1.2,49,0.00,CLR,,0.00,0.0,WeatherDisplay:10.37,2013-03-14 04:06:00,
2013-03-14 00:11:00,49.3,29.4,30.08,NW,314,3.5,3.5,46,0.00,CLR,,0.00,0.0,WeatherDisplay:10.37,2013-03-14 04:11:00,
2013-03-14 00:16:00,49.5,29.0,30.08,WNW,302,6.9,6.9,45,0.00,CLR,,0.00,0.0,WeatherDisplay:10.37,2013-03-14 04:16:00,
2013-03-14 00:21:00,49.8,28.7,30.08,WNW,289,5.8,5.8,44,0.00,CLR,,0.00,0.0,WeatherDisplay:10.37,2013-03-14 04:21:00,
2013-03-14 00:26:00,50.1,28.4,30.08,WNW,298,3.5,3.5,43,0.00,CLR,,0.00,0.0,WeatherDisplay:10.37,2013-03-14 04:26:00,
2013-03-14 00:31:00,50.3,29.7,30.08,West,281,3.5,3.5,45,0.00,CLR,,0.00,0.0,WeatherDisplay:10.37,2013-03-14 04:31:00,
2013-03-14 00:36:00,50.1,28.4,30.09,NW,326,2.3,2.3,43,0.00,CLR,,0.00,0.0,WeatherDisplay:10.37,2013-03-14 04:36:00,
2013-03-14 00:41:00,50.0,29.5,30.09,West,262,2.3,2.3,45,0.00,CLR,,0.00,0.0,WeatherDisplay:10.37,2013-03-14 04:41:00,
2013-03-14 00:46:00,49.8,28.7,30.09,NNW,328,3.5,3.5,44,0.00,CLR,,0.00,0.0,WeatherDisplay:10.37,2013-03-14 04:46:00,
2013-03-14 00:51:00,49.6,29.6,30.09,NNE,22,3.5,3.5,46,0.00,CLR,,0.00,0.0,WeatherDisplay:10.37,2013-03-14 04:51:00,
2013-03-14 00:56:00,49.4,28.9,30.09,West,280,3.5,3.5,45,0.00,CLR,,0.00,0.0,WeatherDisplay:10.37,2013-03-14 04:56:00,
2013-03-14 01:01:00,49.1,28.7,30.10,NW,320,3.5,3.5,45,0.00,CLR,,0.00,0.0,WeatherDisplay:10.37,2013-03-14 05:01:00,
2013-03-14 01:06:00,48.9,30.1,30.09,NW,322,2.3,2.3,48,0.00,CLR,,0.00,0.0,WeatherDisplay:10.37,2013-03-14 05:06:00,
2013-03-14 01:11:00,48.7,29.4,30.10,North,350,2.3,2.3,47,0.00,CLR,,0.00,0.0,WeatherDisplay:10.37,2013-03-14 05:11:00,
2013-03-14 01:16:00,48.5,29.2,30.10,NW,318,2.3,2.3,47,0.00,CLR,,0.00,0.0,WeatherDisplay:10.37,2013-03-14 05:16:00,
2013-03-14 01:21:00,48.3,29.0,30.10,ESE,102,2.3,2.3,47,0.00,CLR,,0.00,0.0,WeatherDisplay:10.37,2013-03-14 05:21:00,
2013-03-14 01:26:00,48.1,29.3,30.10,NNE,21,2.3,2.3,48,0.00,CLR,,0.00,0.0,WeatherDisplay:10.37,2013-03-14 05:26:00,
2013-03-14 01:31:00,48.1,28.3,30.10,NNW,345,3.5,3.5,46,0.00,CLR,,0.00,0.0,WeatherDisplay:10.37,2013-03-14 05:31:00,
2013-03-14 01:36:00,48.2,28.4,30.10,NNW,343,4.6,4.6,46,0.00,CLR,,0.00,0.0,WeatherDisplay:10.37,2013-03-14 05:36:00,
2013-03-14 01:41:00,48.2,27.8,30.10,NE,50,3.5,3.5,45,0.00,CLR,,0.00,0.0,WeatherDisplay:10.37,2013-03-14 05:41:00,
2013-03-14 01:46:00,48.3,27.9,30.10,NNE,12,3.5,3.5,45,0.00,CLR,,0.00,0.0,WeatherDisplay:10.37,2013-03-14 05:46:00,
2013-03-14 01:51:00,48.1,27.7,30.11,NNW,337,5.8,5.8,45,0.00,CLR,,0.00,0.0,WeatherDisplay:10.37,2013-03-14 05:51:00,
2013-03-14 01:56:00,48.0,27.1,30.11,North,359,3.5,3.5,44,0.00,CLR,,0.00,0.0,WeatherDisplay:10.37,2013-03-14 05:56:00,
2013-03-14 02:01:00,47.9,27.6,30.11,North,354,3.0,3.0,45,0.00,CLR,,0.00,0.0,WeatherDisplay:10.37,2013-03-14 06:01:00,
2013-03-14 02:06:00,47.9,27.6,30.11,North,4,3.5,3.5,45,0.00,CLR,,0.00,0.0,WeatherDisplay:10.37,2013-03-14 06:06:00,
2013-03-14 02:11:00,47.8,26.9,30.11,NNW,348,6.9,6.9,44,0.00,CLR,,0.00,0.0,WeatherDisplay:10.37,2013-03-14 06:11:00,
2013-03-14 02:16:00,47.8,26.4,30.12,North,354,9.2,9.2,43,0.00,CLR,,0.00,0.0,WeatherDisplay:10.37,2013-03-14 06:16:00,
2013-03-14 02:21:00,47.8,26.9,30.12,NNW,332,3.5,3.5,44,0.00,CLR,,0.00,0.0,WeatherDisplay:10.37,2013-03-14 06:21:00,
2013-03-14 02:26:00,47.7,26.3,30.12,NNE,17,10.4,10.4,43,0.00,CLR,,0.00,0.0,WeatherDisplay:10.37,2013-03-14 06:26:00,
2013-03-14 02:31:00,47.6,26.2,30.13,NNE,31,4.6,4.6,43,0.00,CLR,,0.00,0.0,WeatherDisplay:10.37,2013-03-14 06:31:00,
2013-03-14 02:36:00,47.6,26.2,30.12,WNW,283,12.7,12.7,43,0.00,CLR,,0.00,0.0,WeatherDisplay:10.37,2013-03-14 06:36:00,
2013-03-14 02:41:00,47.4,24.9,30.12,NNW,340,11.5,11.5,41,0.00,CLR,,0.00,0.0,WeatherDisplay:10.37,2013-03-14 06:41:00,
2013-03-14 02:46:00,47.4,24.9,30.13,North,354,4.6,4.6,41,0.00,CLR,,0.00,0.0,WeatherDisplay:10.37,2013-03-14 06:46:00,
2013-03-14 02:51:00,47.1,26.3,30.13,NNW,331,1.2,1.2,44,0.00,CLR,,0.00,0.0,WeatherDisplay:10.37,2013-03-14 06:51:00,
2013-03-14 02:56:00,46.8,26.0,30.14,NW,313,5.8,5.8,44,0.00,CLR,,0.00,0.0,WeatherDisplay:10.37,2013-03-14 06:56:00,
2013-03-14 03:01:00,46.5,25.7,30.14,NW,325,4.6,4.6,44,0.00,CLR,,0.00,0.0,WeatherDisplay:10.37,2013-03-14 07:01:00,
2013-03-14 03:06:00,46.3,25.6,30.14,NNW,343,5.8,5.8,44,0.00,CLR,,0.00,0.0,WeatherDisplay:10.37,2013-03-14 07:06:00,
2013-03-14 03:11:00,46.1,25.9,30.14,North,4,3.5,3.5,45,0.00,CLR,,0.00,0.0,WeatherDisplay:10.37,2013-03-14 07:11:00,
2013-03-14 03:16:00,45.8,24.5,30.15,NNW,345,4.6,4.6,43,0.00,CLR,,0.00,0.0,WeatherDisplay:10.37,2013-03-14 07:16:00,
2013-03-14 03:21:00,45.7,23.9,30.14,NNW,332,8.1,8.1,42,0.00,CLR,,0.00,0.0,WeatherDisplay:10.37,2013-03-14 07:21:00,
2013-03-14 03:26:00,45.5,24.3,30.14,NNW,345,3.5,3.5,43,0.00,CLR,,0.00,0.0,WeatherDisplay:10.37,2013-03-14 07:26:00,
2013-03-14 03:31:00,45.3,23.5,30.14,NNW,343,3.5,3.5,42,0.00,CLR,,0.00,0.0,WeatherDisplay:10.37,2013-03-14 07:31:00,
2013-03-14 03:36:00,45.1,24.5,30.14,NNW,330,6.9,6.9,44,0.00,CLR,,0.00,0.0,WeatherDisplay:10.37,2013-03-14 07:36:00,
2013-03-14 03:41:00,44.8,24.7,30.14,North,354,1.2,1.2,45,0.00,CLR,,0.00,0.0,WeatherDisplay:10.37,2013-03-14 07:41:00,
2013-03-14 03:46:00,44.6,24.5,30.15,North,349,2.3,2.3,45,0.00,CLR,,0.00,0.0,WeatherDisplay:10.37,2013-03-14 07:46:00,
2013-03-14 03:51:00,44.3,24.3,30.16,North,349,2.3,2.3,45,0.00,CLR,,0.00,0.0,WeatherDisplay:10.37,2013-03-14 07:51:00,
2013-03-14 03:56:00,44.2,25.2,30.15,NW,321,2.3,2.3,47,0.00,CLR,,0.00,0.0,WeatherDisplay:10.37,2013-03-14 07:56:00,
2013-03-14 04:01:00,44.0,24.5,30.15,NW,323,3.5,3.5,46,0.00,CLR,,0.00,0.0,WeatherDisplay:10.37,2013-03-14 08:01:00,
2013-03-14 04:06:00,43.8,24.9,30.15,NW,326,3.5,3.5,47,0.00,CLR,,0.00,0.0,WeatherDisplay:10.37,2013-03-14 08:06:00,
2013-03-14 04:11:00,43.6,25.2,30.15,North,354,3.5,3.5,48,0.00,CLR,,0.00,0.0,WeatherDisplay:10.37,2013-03-14 08:11:00,
2013-03-14 04:16:00,43.4,24.5,30.15,NNW,345,6.9,6.9,47,0.00,CLR,,0.00,0.0,WeatherDisplay:10.37,2013-03-14 08:16:00,
2013-03-14 04:21:00,43.3,24.4,30.15,NW,317,3.5,3.5,47,0.00,CLR,,0.00,0.0,WeatherDisplay:10.37,2013-03-14 08:21:00,
2013-03-14 04:26:00,43.1,24.2,30.15,NNW,342,4.6,4.6,47,0.00,CLR,,0.00,0.0,WeatherDisplay:10.37,2013-03-14 08:26:00,
2013-03-14 04:31:00,43.0,25.1,30.15,NNW,331,3.5,3.5,49,0.00,CLR,,0.00,0.0,WeatherDisplay:10.37,2013-03-14 08:31:00,
2013-03-14 04:36:00,42.7,25.3,30.15,North,354,3.5,3.5,50,0.00,CLR,,0.00,0.0,WeatherDisplay:10.37,2013-03-14 08:36:00,
2013-03-14 04:41:00,42.6,24.8,30.15,NNW,330,6.9,6.9,49,0.00,CLR,,0.00,0.0,WeatherDisplay:10.37,2013-03-14 08:41:00,
2013-03-14 04:46:00,42.6,24.3,30.15,NNW,341,4.6,4.7,48,0.00,CLR,,0.00,0.0,WeatherDisplay:10.37,2013-03-14 08:46:00,
2013-03-14 04:51:00,42.6,24.3,30.16,NNE,27,3.5,3.5,48,0.00,CLR,,0.00,0.0,WeatherDisplay:10.37,2013-03-14 08:51:00,
2013-03-14 04:56:00,42.5,24.2,30.16,NW,314,3.5,3.5,48,0.00,CLR,,0.00,0.0,WeatherDisplay:10.37,2013-03-14 08:56:00,
2013-03-14 05:01:00,42.4,24.6,30.16,NNW,348,3.5,3.5,49,0.00,CLR,,0.00,0.0,WeatherDisplay:10.37,2013-03-14 09:01:00,
2013-03-14 05:06:00,42.1,24.8,30.15,NNW,337,4.6,4.6,50,0.00,CLR,,0.00,0.0,WeatherDisplay:10.37,2013-03-14 09:06:00,
2013-03-14 05:11:00,41.9,25.1,30.15,NNW,345,2.3,2.3,51,0.00,CLR,,0.00,0.0,WeatherDisplay:10.37,2013-03-14 09:11:00,
2013-03-14 05:16:00,41.6,25.3,30.15,NNW,337,3.5,3.5,52,0.00,CLR,,0.00,0.0,WeatherDisplay:10.37,2013-03-14 09:16:00,
2013-03-14 05:21:00,41.1,25.3,30.15,NNW,337,2.3,2.3,53,0.00,CLR,,0.00,0.0,WeatherDisplay:10.37,2013-03-14 09:21:00,
2013-03-14 05:26:00,40.7,25.8,30.16,NNW,338,1.2,0.0,55,0.00,CLR,,0.00,0.0,WeatherDisplay:10.37,2013-03-14 09:26:00,
2013-03-14 05:31:00,40.1,25.6,30.16,NNW,339,0.0,0.0,56,0.00,CLR,,0.00,0.0,WeatherDisplay:10.37,2013-03-14 09:31:00,
2013-03-14 05:36:00,39.7,26.5,30.17,NNW,339,1.2,1.2,59,0.00,CLR,,0.00,0.0,WeatherDisplay:10.37,2013-03-14 09:36:00,
2013-03-14 05:41:00,39.5,25.9,30.17,North,4,3.0,3.0,58,0.00,CLR,,0.00,0.0,WeatherDisplay:10.37,2013-03-14 09:41:00,
2013-03-14 05:46:00,39.3,25.7,30.17,North,4,3.5,3.5,58,0.00,CLR,,0.00,0.0,WeatherDisplay:10.37,2013-03-14 09:46:00,
2013-03-14 05:51:00,39.1,25.6,30.17,North,4,1.2,1.2,58,0.00,CLR,,0.00,0.0,WeatherDisplay:10.37,2013-03-14 09:51:00,
2013-03-14 05:56:00,39.0,25.9,30.18,North,4,1.2,1.2,59,0.00,CLR,,0.00,0.0,WeatherDisplay:10.37,2013-03-14 09:56:00,
2013-03-14 06:01:00,38.7,26.4,30.18,North,4,0.0,0.0,61,0.00,CLR,,0.00,0.0,WeatherDisplay:10.37,2013-03-14 10:01:00,
2013-03-14 06:06:00,38.5,26.6,30.18,North,4,2.3,2.3,62,0.00,CLR,,0.00,0.0,WeatherDisplay:10.37,2013-03-14 10:06:00,
2013-03-14 06:11:00,38.2,26.7,30.18,North,4,0.0,0.0,63,0.00,CLR,,0.00,0.0,WeatherDisplay:10.37,2013-03-14 10:11:00,
2013-03-14 06:16:00,37.9,27.2,30.19,North,4,0.0,0.0,65,0.00,CLR,,0.00,0.0,WeatherDisplay:10.37,2013-03-14 10:16:00,
2013-03-14 06:21:00,37.6,26.9,30.19,North,4,0.0,0.0,65,0.00,CLR,,0.00,0.0,WeatherDisplay:10.37,2013-03-14 10:21:00,
2013-03-14 06:26:00,37.3,27.0,30.19,North,8,1.2,1.2,66,0.00,CLR,,0.00,0.0,WeatherDisplay:10.37,2013-03-14 10:26:00,
2013-03-14 06:31:00,37.4,26.3,30.19,NW,313,4.6,4.6,64,0.00,CLR,,0.00,0.0,WeatherDisplay:10.37,2013-03-14 10:31:00,
2013-03-14 06:36:00,37.7,25.8,30.20,North,8,6.9,6.9,62,0.00,CLR,,0.00,0.0,WeatherDisplay:10.37,2013-03-14 10:36:00,
2013-03-14 06:42:00,38.5,25.8,30.20,NNW,343,5.8,5.8,60,0.00,CLR,,0.00,0.0,WeatherDisplay:10.37,2013-03-14 10:42:00,
2013-03-14 06:47:00,38.9,25.4,30.20,NNW,343,8.1,8.1,58,0.00,CLR,,0.00,0.0,WeatherDisplay:10.37,2013-03-14 10:47:00,
2013-03-14 06:52:00,39.2,24.8,30.20,NNW,345,8.1,8.1,56,0.00,CLR,,0.00,0.0,WeatherDisplay:10.37,2013-03-14 10:52:00,
2013-03-14 06:57:00,39.5,25.1,30.21,North,354,3.5,3.5,56,0.00,CLR,,0.00,0.0,WeatherDisplay:10.37,2013-03-14 10:57:00,
2013-03-14 07:02:00,39.6,24.7,30.21,NNW,330,8.1,8.1,55,0.00,CLR,,0.00,0.0,WeatherDisplay:10.37,2013-03-14 11:02:00,
2013-03-14 07:07:00,39.6,24.7,30.21,NW,322,6.9,6.9,55,0.00,CLR,,0.00,0.0,WeatherDisplay:10.37,2013-03-14 11:07:00,
2013-03-14 07:12:00,39.6,24.7,30.22,NNE,14,3.5,3.5,55,0.00,CLR,,0.00,0.0,WeatherDisplay:10.37,2013-03-14 11:12:00,
2013-03-14 07:17:00,39.6,24.3,30.22,North,359,3.5,3.5,54,0.00,CLR,,0.00,0.0,WeatherDisplay:10.37,2013-03-14 11:17:00,
2013-03-14 07:22:00,39.4,24.1,30.23,North,354,5.8,5.8,54,0.00,CLR,,0.00,0.0,WeatherDisplay:10.37,2013-03-14 11:22:00,
2013-03-14 07:27:00,39.3,24.0,30.23,NNE,20,4.6,4.6,54,0.00,CLR,,0.00,0.0,WeatherDisplay:10.37,2013-03-14 11:27:00,
2013-03-14 07:32:00,39.2,24.8,30.23,NNW,339,4.6,4.6,56,0.00,CLR,,0.00,0.0,WeatherDisplay:10.37,2013-03-14 11:32:00,
2013-03-14 07:37:00,39.0,24.2,30.24,North,354,8.1,8.1,55,0.00,CLR,,0.00,0.0,WeatherDisplay:10.37,2013-03-14 11:37:00,
2013-03-14 07:42:00,39.0,23.7,30.24,North,4,9.2,9.2,54,0.00,CLR,,0.00,0.0,WeatherDisplay:10.37,2013-03-14 11:42:00,
2013-03-14 07:57:00,39.2,23.9,30.24,NNE,17,4.6,4.6,54,0.00,CLR,,0.00,0.0,WeatherDisplay:10.37,2013-03-14 11:57:00,
2013-03-14 08:02:00,39.1,23.8,30.25,NNE,14,9.2,9.2,54,0.00,CLR,,0.00,0.0,WeatherDisplay:10.37,2013-03-14 12:02:00,
2013-03-14 08:07:00,39.1,23.8,30.25,NNW,332,10.0,10.0,54,0.00,CLR,,0.00,0.0,WeatherDisplay:10.37,2013-03-14 12:07:00,
2013-03-14 08:12:00,39.1,23.8,30.25,NNE,17,6.9,7.3,54,0.00,CLR,,0.00,0.0,WeatherDisplay:10.37,2013-03-14 12:12:00,
2013-03-14 08:17:00,39.2,23.5,30.25,NNW,343,11.5,11.5,53,0.00,CLR,,0.00,0.0,WeatherDisplay:10.37,2013-03-14 12:17:00,
2013-03-14 08:22:00,39.3,23.6,30.25,NW,318,6.9,6.9,53,0.00,CLR,,0.00,0.0,WeatherDisplay:10.37,2013-03-14 12:22:00,
2013-03-14 08:27:00,39.5,22.8,30.26,ENE,60,13.8,13.8,51,0.00,CLR,,0.00,0.0,WeatherDisplay:10.37,2013-03-14 12:27:00,
2013-03-14 08:32:00,39.5,22.4,30.26,North,359,11.5,11.5,50,0.00,CLR,,0.00,0.0,WeatherDisplay:10.37,2013-03-14 12:32:00,
2013-03-14 08:37:00,39.7,22.6,30.26,NNW,334,15.0,15.0,50,0.00,CLR,,0.00,0.0,WeatherDisplay:10.37,2013-03-14 12:37:00,
2013-03-14 08:42:00,39.7,22.6,30.26,NE,35,11.5,11.5,50,0.00,CLR,,0.00,0.0,WeatherDisplay:10.37,2013-03-14 12:42:00,
2013-03-14 08:47:00,39.8,22.7,30.27,NW,325,17.3,17.3,50,0.00,CLR,,0.00,0.0,WeatherDisplay:10.37,2013-03-14 12:47:00,
2013-03-14 08:52:00,40.0,22.8,30.27,NE,37,8.1,8.1,50,0.00,CLR,,0.00,0.0,WeatherDisplay:10.37,2013-03-14 12:52:00,
2013-03-14 08:57:00,40.2,23.0,30.27,North,4,11.5,11.5,50,0.00,CLR,,0.00,0.0,WeatherDisplay:10.37,2013-03-14 12:57:00,
2013-03-14 09:02:00,40.7,22.5,30.27,North,354,11.5,11.5,48,0.00,CLR,,0.00,0.0,WeatherDisplay:10.37,2013-03-14 13:02:00,
2013-03-14 09:07:00,41.2,23.5,30.27,NNW,331,5.8,5.8,49,0.00,CLR,,0.00,0.0,WeatherDisplay:10.37,2013-03-14 13:07:00,
2013-03-14 09:12:00,41.8,23.5,30.27,NW,321,9.2,9.2,48,0.00,CLR,,0.00,0.0,WeatherDisplay:10.37,2013-03-14 13:12:00,
2013-03-14 09:17:00,42.2,23.4,30.28,North,4,9.2,9.2,47,0.00,CLR,,0.00,0.0,WeatherDisplay:10.37,2013-03-14 13:17:00,
2013-03-14 09:22:00,42.6,23.2,30.28,NNE,18,11.5,11.5,46,0.00,CLR,,0.00,0.0,WeatherDisplay:10.37,2013-03-14 13:22:00,
2013-03-14 09:27:00,42.5,22.6,30.28,NNW,338,11.5,11.5,45,0.00,CLR,,0.00,0.0,WeatherDisplay:10.37,2013-03-14 13:27:00,
2013-03-14 09:32:00,42.9,23.5,30.28,NNE,31,9.2,9.2,46,0.00,CLR,,0.00,0.0,WeatherDisplay:10.37,2013-03-14 13:32:00,
2013-03-14 09:37:00,43.0,22.0,30.28,North,359,11.5,11.5,43,0.00,CLR,,0.00,0.0,WeatherDisplay:10.37,2013-03-14 13:37:00,
2013-03-14 09:42:00,42.9,22.5,30.28,NW,310,11.5,11.5,44,0.00,CLR,,0.00,0.0,WeatherDisplay:10.37,2013-03-14 13:42:00,
2013-03-14 09:47:00,42.8,22.4,30.29,ENE,58,10.4,10.4,44,0.00,CLR,,0.00,0.0,WeatherDisplay:10.37,2013-03-14 13:47:00,
2013-03-14 09:52:00,42.9,22.5,30.28,NNE,15,8.1,8.1,44,0.00,CLR,,0.00,0.0,WeatherDisplay:10.37,2013-03-14 13:52:00,
2013-03-14 09:57:00,43.2,21.6,30.29,North,354,10.4,10.4,42,0.00,CLR,,0.00,0.0,WeatherDisplay:10.37,2013-03-14 13:57:00,
2013-03-14 10:02:00,43.3,21.1,30.29,NNW,332,12.7,12.7,41,0.00,CLR,,0.00,0.0,WeatherDisplay:10.37,2013-03-14 14:02:00,
2013-03-14 10:07:00,43.3,21.1,30.29,NE,41,15.0,15.0,41,0.00,CLR,,0.00,0.0,WeatherDisplay:10.37,2013-03-14 14:07:00,
2013-03-14 10:12:00,43.5,21.9,30.29,North,359,8.0,8.0,42,0.00,CLR,,0.00,0.0,WeatherDisplay:10.37,2013-03-14 14:12:00,
2013-03-14 10:17:00,43.8,22.2,30.29,NNE,16,9.2,9.2,42,0.00,CLR,,0.00,0.0,WeatherDisplay:10.37,2013-03-14 14:17:00,
2013-03-14 10:22:00,44.2,22.5,30.29,NNE,16,6.9,6.9,42,0.00,CLR,,0.00,0.0,WeatherDisplay:10.37,2013-03-14 14:22:00,
2013-03-14 10:27:00,44.4,21.6,30.29,NW,320,8.1,8.1,40,0.00,CLR,,0.00,0.0,WeatherDisplay:10.37,2013-03-14 14:27:00,
2013-03-14 10:32:00,44.3,20.9,30.29,North,8,12.7,12.7,39,0.00,CLR,,0.00,0.0,WeatherDisplay:10.37,2013-03-14 14:32:00,
2013-03-14 10:37:00,44.8,22.5,30.29,North,354,3.5,3.5,41,0.00,CLR,,0.00,0.0,WeatherDisplay:10.37,2013-03-14 14:37:00,
2013-03-14 10:42:00,45.5,21.3,30.29,NNW,343,9.2,9.2,38,0.00,CLR,,0.00,0.0,WeatherDisplay:10.37,2013-03-14 14:42:00,
2013-03-14 10:48:00,45.9,22.9,30.28,North,354,4.6,4.6,40,0.00,CLR,,0.00,0.0,WeatherDisplay:10.37,2013-03-14 14:48:00,
2013-03-14 10:53:00,46.7,21.8,30.28,NNW,339,6.9,6.9,37,0.00,CLR,,0.00,0.0,WeatherDisplay:10.37,2013-03-14 14:53:00,
2013-03-14 10:58:00,47.0,21.4,30.28,NNW,328,5.8,7.1,36,0.00,CLR,,0.00,0.0,WeatherDisplay:10.37,2013-03-14 14:58:00,
2013-03-14 11:03:00,46.7,23.0,30.28,North,354,10.4,10.4,39,0.00,CLR,,0.00,0.0,WeatherDisplay:10.37,2013-03-14 15:03:00,
2013-03-14 11:08:00,46.8,21.9,30.28,NNE,30,10.4,10.4,37,0.00,CLR,,0.00,0.0,WeatherDisplay:10.37,2013-03-14 15:08:00,
2013-03-14 11:13:00,47.1,21.5,30.27,NNW,345,8.1,8.1,36,0.00,CLR,,0.00,0.0,WeatherDisplay:10.37,2013-03-14 15:13:00,
2013-03-14 11:18:00,47.5,23.1,30.27,WNW,296,10.4,10.4,38,0.00,CLR,,0.00,0.0,WeatherDisplay:10.37,2013-03-14 15:18:00,
2013-03-14 11:23:00,47.9,23.5,30.27,ENE,66,3.5,3.5,38,0.00,CLR,,0.00,0.0,WeatherDisplay:10.37,2013-03-14 15:23:00,
2013-03-14 11:28:00,48.1,22.4,30.27,WNW,289,5.8,5.8,36,0.00,CLR,,0.00,0.0,WeatherDisplay:10.37,2013-03-14 15:28:00,
2013-03-14 11:33:00,48.0,21.6,30.27,NNW,342,11.5,11.5,35,0.00,CLR,,0.00,0.0,WeatherDisplay:10.37,2013-03-14 15:33:00,
2013-03-14 11:38:00,48.0,21.6,30.26,East,93,5.8,5.8,35,0.00,CLR,,0.00,0.0,WeatherDisplay:10.37,2013-03-14 15:38:00,
2013-03-14 11:43:00,48.1,23.0,30.26,SSW,208,2.3,2.3,37,0.00,CLR,,0.00,0.0,WeatherDisplay:10.37,2013-03-14 15:43:00,
2013-03-14 11:48:00,48.7,22.2,30.26,NNW,341,5.8,5.8,35,0.00,CLR,,0.00,0.0,WeatherDisplay:10.37,2013-03-14 15:48:00,
2013-03-14 11:53:00,48.5,22.7,30.26,NW,314,8.1,8.1,36,0.00,CLR,,0.00,0.0,WeatherDisplay:10.37,2013-03-14 15:53:00,
2013-03-14 11:58:00,49.0,23.2,30.26,NW,325,3.5,3.5,36,0.00,CLR,,0.00,0.0,WeatherDisplay:10.37,2013-03-14 15:58:00,
2013-03-14 12:03:00,49.0,23.8,30.26,NNW,330,4.6,4.6,37,0.00,CLR,,0.00,0.0,WeatherDisplay:10.37,2013-03-14 16:03:00,
2013-03-14 12:08:00,48.8,22.3,30.25,North,350,6.9,6.9,35,0.00,CLR,,0.00,0.0,WeatherDisplay:10.37,2013-03-14 16:08:00,
2013-03-14 12:13:00,48.8,23.6,30.25,NNW,334,4.0,4.2,37,0.00,CLR,,0.00,0.0,WeatherDisplay:10.37,2013-03-14 16:13:00,
2013-03-14 12:18:00,49.4,23.5,30.25,NE,49,5.8,5.8,36,0.00,CLR,,0.00,0.0,WeatherDisplay:10.37,2013-03-14 16:18:00,
2013-03-14 12:23:00,49.6,24.4,30.25,NW,305,4.6,6.6,37,0.00,CLR,,0.00,0.0,WeatherDisplay:10.37,2013-03-14 16:23:00,
2013-03-14 12:28:00,50.3,24.3,30.25,SSW,201,6.9,6.9,36,0.00,CLR,,0.00,0.0,WeatherDisplay:10.37,2013-03-14 16:28:00,
2013-03-14 12:33:00,50.3,23.0,30.25,NE,35,4.6,4.6,34,0.00,CLR,,0.00,0.0,WeatherDisplay:10.37,2013-03-14 16:33:00,
2013-03-14 12:38:00,50.3,25.0,30.25,West,260,4.6,4.6,37,0.00,CLR,,0.00,0.0,WeatherDisplay:10.37,2013-03-14 16:38:00,
2013-03-14 12:43:00,50.8,24.1,30.25,West,273,4.6,4.6,35,0.00,CLR,,0.00,0.0,WeatherDisplay:10.37,2013-03-14 16:43:00,
2013-03-14 12:48:00,51.5,24.0,30.25,WNW,289,6.9,6.9,34,0.00,CLR,,0.00,0.0,WeatherDisplay:10.37,2013-03-14 16:48:00,
2013-03-14 12:53:00,51.5,22.6,30.25,North,8,11.5,11.5,32,0.00,CLR,,0.00,0.0,WeatherDisplay:10.37,2013-03-14 16:53:00,
2013-03-14 12:58:00,51.5,24.7,30.25,WNW,303,4.6,4.6,35,0.00,CLR,,0.00,0.0,WeatherDisplay:10.37,2013-03-14 16:58:00,
2013-03-14 13:03:00,51.3,23.1,30.25,SW,220,3.5,3.5,33,0.00,CLR,,0.00,0.0,WeatherDisplay:10.37,2013-03-14 17:03:00,
2013-03-14 13:08:00,51.5,24.7,30.25,NW,312,4.6,4.6,35,0.00,CLR,,0.00,0.0,WeatherDisplay:10.37,2013-03-14 17:08:00,
2013-03-14 13:13:00,51.9,24.4,30.25,WSW,239,3.5,3.5,34,0.00,CLR,,0.00,0.0,WeatherDisplay:10.37,2013-03-14 17:13:00,
2013-03-14 13:18:00,52.6,24.3,30.24,WSW,243,5.8,5.8,33,0.00,CLR,,0.00,0.0,WeatherDisplay:10.37,2013-03-14 17:18:00,
2013-03-14 13:23:00,53.2,24.8,30.24,NW,320,3.5,3.5,33,0.00,CLR,,0.00,0.0,WeatherDisplay:10.37,2013-03-14 17:23:00,
2013-03-14 13:28:00,53.7,25.2,30.23,NNW,345,5.8,5.8,33,0.00,CLR,,0.00,0.0,WeatherDisplay:10.37,2013-03-14 17:28:00,
2013-03-14 13:33:00,54.2,26.4,30.23,West,274,5.8,5.8,34,0.00,CLR,,0.00,0.0,WeatherDisplay:10.37,2013-03-14 17:33:00,
2013-03-14 13:38:00,54.1,24.9,30.23,WSW,255,3.5,3.5,32,0.00,CLR,,0.00,0.0,WeatherDisplay:10.37,2013-03-14 17:38:00,
2013-03-14 13:43:00,53.5,25.1,30.23,West,274,4.6,4.6,33,0.00,CLR,,0.00,0.0,WeatherDisplay:10.37,2013-03-14 17:43:00,
2013-03-14 13:48:00,54.0,26.9,30.23,WSW,247,3.5,3.5,35,0.00,CLR,,0.00,0.0,WeatherDisplay:10.37,2013-03-14 17:48:00,
2013-03-14 13:53:00,54.9,26.3,30.23,SSW,193,3.5,3.5,33,0.00,CLR,,0.00,0.0,WeatherDisplay:10.37,2013-03-14 17:53:00,
2013-03-14 13:58:00,54.9,24.8,30.23,North,354,4.6,4.6,31,0.00,CLR,,0.00,0.0,WeatherDisplay:10.37,2013-03-14 17:58:00,
2013-03-14 14:03:00,54.9,27.0,30.23,WSW,240,4.6,4.6,34,0.00,CLR,,0.00,0.0,WeatherDisplay:10.37,2013-03-14 18:03:00,
2013-03-14 14:08:00,55.3,25.1,30.22,WSW,247,3.5,3.5,31,0.00,CLR,,0.00,0.0,WeatherDisplay:10.37,2013-03-14 18:08:00,
2013-03-14 14:13:00,55.5,26.1,30.23,SW,221,2.3,2.3,32,0.00,CLR,,0.00,0.0,WeatherDisplay:10.37,2013-03-14 18:13:00,
2013-03-14 14:18:00,55.9,25.7,30.23,WSW,250,5.8,5.8,31,0.00,CLR,,0.00,0.0,WeatherDisplay:10.37,2013-03-14 18:18:00,
2013-03-14 14:23:00,56.0,25.0,30.22,North,354,6.9,6.9,30,0.00,CLR,,0.00,0.0,WeatherDisplay:10.37,2013-03-14 18:23:00,
2013-03-14 14:28:00,55.3,23.5,30.22,SW,216,3.5,3.5,29,0.00,CLR,,0.00,0.0,WeatherDisplay:10.37,2013-03-14 18:28:00,
2013-03-14 14:33:00,55.5,25.3,30.22,NNE,31,3.5,3.5,31,0.00,CLR,,0.00,0.0,WeatherDisplay:10.37,2013-03-14 18:33:00,
2013-03-14 14:38:00,55.3,23.5,30.22,ENE,64,3.5,3.5,29,0.00,CLR,,0.00,0.0,WeatherDisplay:10.37,2013-03-14 18:38:00,
2013-03-14 14:43:00,55.5,23.7,30.22,SW,230,2.3,2.3,29,0.00,CLR,,0.00,0.0,WeatherDisplay:10.37,2013-03-14 18:43:00,
2013-03-14 14:48:00,55.9,24.1,30.21,WNW,283,4.6,4.6,29,0.00,CLR,,0.00,0.0,WeatherDisplay:10.37,2013-03-14 18:48:00,
2013-03-14 14:53:00,56.1,24.2,30.21,NW,305,4.6,4.6,29,0.00,CLR,,0.00,0.0,WeatherDisplay:10.37,2013-03-14 18:53:00,
2013-03-14 14:58:00,56.0,24.2,30.21,NW,313,2.3,2.3,29,0.00,CLR,,0.00,0.0,WeatherDisplay:10.37,2013-03-14 18:58:00,
2013-03-14 15:03:00,56.3,23.6,30.20,NW,319,8.1,8.1,28,0.00,CLR,,0.00,0.0,WeatherDisplay:10.37,2013-03-14 19:03:00,
2013-03-14 15:08:00,56.5,23.7,30.20,NNE,29,4.6,4.6,28,0.00,CLR,,0.00,0.0,WeatherDisplay:10.37,2013-03-14 19:08:00,
2013-03-14 15:13:00,56.3,22.7,30.19,NNW,341,4.6,4.6,27,0.00,CLR,,0.00,0.0,WeatherDisplay:10.37,2013-03-14 19:13:00,
2013-03-14 15:18:00,56.3,25.2,30.19,NNE,21,3.5,3.5,30,0.00,CLR,,0.00,0.0,WeatherDisplay:10.37,2013-03-14 19:18:00,
2013-03-14 15:23:00,56.6,25.5,30.19,NE,38,12.7,12.7,30,0.00,CLR,,0.00,0.0,WeatherDisplay:10.37,2013-03-14 19:23:00,
2013-03-14 15:28:00,56.8,24.0,30.19,NW,313,4.6,4.6,28,0.00,CLR,,0.00,0.0,WeatherDisplay:10.37,2013-03-14 19:28:00,
2013-03-14 15:33:00,56.7,23.0,30.19,SE,124,9.2,9.2,27,0.00,CLR,,0.00,0.0,WeatherDisplay:10.37,2013-03-14 19:33:00,
2013-03-14 15:38:00,56.6,23.0,30.18,North,4,8.1,8.1,27,0.00,CLR,,0.00,0.0,WeatherDisplay:10.37,2013-03-14 19:38:00,
2013-03-14 15:43:00,56.5,22.9,30.18,SW,224,3.5,3.5,27,0.00,CLR,,0.00,0.0,WeatherDisplay:10.37,2013-03-14 19:43:00,
2013-03-14 15:48:00,56.9,24.1,30.18,NW,326,3.5,3.5,28,0.00,CLR,,0.00,0.0,WeatherDisplay:10.37,2013-03-14 19:48:00,
2013-03-14 15:53:00,56.9,23.2,30.17,NNW,330,4.6,4.6,27,0.00,CLR,,0.00,0.0,WeatherDisplay:10.37,2013-03-14 19:53:00,
2013-03-14 15:58:00,56.4,23.7,30.17,ENE,59,3.5,3.5,28,0.00,CLR,,0.00,0.0,WeatherDisplay:10.37,2013-03-14 19:58:00,
2013-03-14 16:03:00,56.0,22.4,30.17,North,4,9.2,9.2,27,0.00,CLR,,0.00,0.0,WeatherDisplay:10.37,2013-03-14 20:03:00,
2013-03-14 16:08:00,55.4,21.0,30.17,NNW,328,5.8,5.8,26,0.00,CLR,,0.00,0.0,WeatherDisplay:10.37,2013-03-14 20:08:00,
2013-03-14 16:13:00,55.3,23.5,30.17,NW,306,3.5,3.5,29,0.00,CLR,,0.00,0.0,WeatherDisplay:10.37,2013-03-14 20:13:00,
2013-03-14 16:18:00,54.9,21.5,30.17,NW,308,11.5,11.5,27,0.00,CLR,,0.00,0.0,WeatherDisplay:10.37,2013-03-14 20:18:00,
2013-03-14 16:23:00,54.4,20.2,30.17,North,4,8.1,8.1,26,0.00,CLR,,0.00,0.0,WeatherDisplay:10.37,2013-03-14 20:23:00,
2013-03-14 16:28:00,54.1,20.8,30.16,WSW,250,6.9,6.9,27,0.00,CLR,,0.00,0.0,WeatherDisplay:10.37,2013-03-14 20:28:00,
2013-03-14 16:33:00,54.4,21.9,30.16,NNE,18,5.8,5.8,28,0.00,CLR,,0.00,0.0,WeatherDisplay:10.37,2013-03-14 20:33:00,
2013-03-14 16:38:00,54.3,20.1,30.17,NNE,27,8.1,8.1,26,0.00,CLR,,0.00,0.0,WeatherDisplay:10.37,2013-03-14 20:38:00,
2013-03-14 16:43:00,54.2,20.0,30.16,North,354,5.8,5.8,26,0.00,CLR,,0.00,0.0,WeatherDisplay:10.37,2013-03-14 20:43:00,
2013-03-14 16:48:00,54.4,23.6,30.16,West,270,3.5,3.5,30,0.00,CLR,,0.00,0.0,WeatherDisplay:10.37,2013-03-14 20:48:00,
2013-03-14 16:53:00,54.6,22.1,30.16,ENE,75,2.3,2.3,28,0.00,CLR,,0.00,0.0,WeatherDisplay:10.37,2013-03-14 20:53:00,
2013-03-14 16:58:00,54.6,20.4,30.16,North,354,4.6,4.6,26,0.00,CLR,,0.00,0.0,WeatherDisplay:10.37,2013-03-14 20:58:00,
2013-03-14 17:03:00,54.5,22.0,30.16,NE,41,3.5,3.5,28,0.00,CLR,,0.00,0.0,WeatherDisplay:10.37,2013-03-14 21:03:00,
2013-03-14 17:08:00,54.6,22.1,30.16,NNE,18,5.0,5.0,28,0.00,CLR,,0.00,0.0,WeatherDisplay:10.37,2013-03-14 21:08:00,
2013-03-14 17:13:00,54.8,21.4,30.16,NNE,19,3.5,3.5,27,0.00,CLR,,0.00,0.0,WeatherDisplay:10.37,2013-03-14 21:13:00,
2013-03-14 17:18:00,54.8,22.3,30.16,WNW,301,2.3,2.3,28,0.00,CLR,,0.00,0.0,WeatherDisplay:10.37,2013-03-14 21:18:00,
2013-03-14 17:24:00,54.6,20.4,30.15,NNW,335,4.6,4.6,26,0.00,CLR,,0.00,0.0,WeatherDisplay:10.37,2013-03-14 21:24:00,
2013-03-14 17:29:00,54.3,20.1,30.15,NNW,328,6.9,6.9,26,0.00,CLR,,0.00,0.0,WeatherDisplay:10.37,2013-03-14 21:29:00,
2013-03-14 17:34:00,54.4,22.8,30.15,NNW,333,3.5,3.5,29,0.00,CLR,,0.00,0.0,WeatherDisplay:10.37,2013-03-14 21:34:00,
2013-03-14 17:39:00,54.7,23.8,30.15,SW,235,3.5,3.5,30,0.00,CLR,,0.00,0.0,WeatherDisplay:10.37,2013-03-14 21:39:00,
2013-03-14 17:44:00,55.0,23.3,30.15,WNW,294,1.2,1.2,29,0.00,CLR,,0.00,0.0,WeatherDisplay:10.37,2013-03-14 21:44:00,
2013-03-14 17:49:00,55.3,21.8,30.15,NNW,338,3.5,3.5,27,0.00,CLR,,0.00,0.0,WeatherDisplay:10.37,2013-03-14 21:49:00,
2013-03-14 17:54:00,55.7,23.1,30.15,WSW,246,2.3,2.3,28,0.00,CLR,,0.00,0.0,WeatherDisplay:10.37,2013-03-14 21:54:00,
2013-03-14 17:59:00,55.8,23.1,30.15,SW,229,1.2,1.2,28,0.00,CLR,,0.00,0.0,WeatherDisplay:10.37,2013-03-14 21:59:00,
2013-03-14 18:04:00,55.7,23.9,30.15,NNE,29,2.0,2.0,29,0.00,CLR,,0.00,0.0,WeatherDisplay:10.37,2013-03-14 22:04:00,
2013-03-14 18:09:00,55.5,23.7,30.15,NNE,25,0.0,0.3,29,0.00,CLR,,0.00,0.0,WeatherDisplay:10.37,2013-03-14 22:09:00,
2013-03-14 18:14:00,55.4,24.4,30.15,SW,224,2.3,2.3,30,0.00,CLR,,0.00,0.0,WeatherDisplay:10.37,2013-03-14 22:14:00,
2013-03-14 18:19:00,55.3,25.1,30.15,West,262,2.3,2.3,31,0.00,FEW,,0.00,0.0,WeatherDisplay:10.37,2013-03-14 22:19:00,
2013-03-14 18:24:00,55.0,24.9,30.15,ESE,120,2.3,2.3,31,0.00,FEW,,0.00,0.0,WeatherDisplay:10.37,2013-03-14 22:24:00,
2013-03-14 18:29:00,54.7,23.8,30.15,NNE,20,3.5,3.5,30,0.00,FEW,,0.00,0.0,WeatherDisplay:10.37,2013-03-14 22:29:00,
2013-03-14 18:34:00,54.5,22.0,30.15,NNW,328,3.5,3.5,28,0.00,FEW,,0.00,0.0,WeatherDisplay:10.37,2013-03-14 22:34:00,
2013-03-14 18:39:00,54.2,23.4,30.16,NNW,332,3.5,3.5,30,0.00,FEW,,0.00,0.0,WeatherDisplay:10.37,2013-03-14 22:39:00,
2013-03-14 18:44:00,53.9,23.1,30.16,NNW,337,2.3,2.3,30,0.00,FEW,,0.00,0.0,WeatherDisplay:10.37,2013-03-14 22:44:00,
2013-03-14 18:49:00,53.6,23.7,30.16,NW,314,1.2,1.2,31,0.00,FEW,,0.00,0.0,WeatherDisplay:10.37,2013-03-14 22:49:00,
2013-03-14 18:54:00,53.3,25.6,30.17,NW,313,0.0,0.0,34,0.00,FEW,,0.00,0.0,WeatherDisplay:10.37,2013-03-14 22:54:00,
2013-03-14 18:59:00,53.0,26.0,30.17,West,272,2.3,2.3,35,0.00,FEW,,0.00,0.0,WeatherDisplay:10.37,2013-03-14 22:59:00,
2013-03-14 19:04:00,52.7,25.8,30.17,West,272,0.0,0.0,35,0.00,FEW,,0.00,0.0,WeatherDisplay:10.37,2013-03-14 23:04:00,
2013-03-14 19:09:00,52.3,26.1,30.18,West,271,0.0,0.0,36,0.00,FEW,,0.00,0.0,WeatherDisplay:10.37,2013-03-14 23:09:00,
2013-03-14 19:14:00,51.8,26.3,30.18,West,271,0.0,0.0,37,0.00,FEW,,0.00,0.0,WeatherDisplay:10.37,2013-03-14 23:14:00,
2013-03-14 19:19:00,51.4,25.3,30.18,West,270,0.0,0.1,36,0.00,FEW,,0.00,0.0,WeatherDisplay:10.37,2013-03-14 23:19:00,
2013-03-14 19:24:00,51.0,25.6,30.18,West,271,0.0,0.0,37,0.00,FEW,,0.00,0.0,WeatherDisplay:10.37,2013-03-14 23:24:00,
2013-03-14 19:29:00,50.6,27.1,30.18,West,272,0.0,0.0,40,0.00,FEW,,0.00,0.0,WeatherDisplay:10.37,2013-03-14 23:29:00,
2013-03-14 19:34:00,50.1,27.3,30.18,West,271,0.0,0.0,41,0.00,FEW,,0.00,0.0,WeatherDisplay:10.37,2013-03-14 23:34:00,
2013-03-14 19:39:00,49.8,27.6,30.17,West,271,0.0,0.0,42,0.00,FEW,,0.00,0.0,WeatherDisplay:10.37,2013-03-14 23:39:00,
2013-03-14 19:44:00,49.3,28.3,30.18,West,272,0.0,0.0,44,0.00,FEW,,0.00,0.0,WeatherDisplay:10.37,2013-03-14 23:44:00,
2013-03-14 19:49:00,48.9,27.9,30.18,West,271,0.0,0.0,44,0.00,FEW,,0.00,0.0,WeatherDisplay:10.37,2013-03-14 23:49:00,
2013-03-14 19:54:00,48.4,28.5,30.18,West,272,0.0,0.0,46,0.00,FEW,,0.00,0.0,WeatherDisplay:10.37,2013-03-14 23:54:00,
2013-03-14 19:59:00,47.8,28.5,30.18,West,271,0.0,0.0,47,0.00,FEW,,0.00,0.0,WeatherDisplay:10.37,2013-03-14 23:59:00,
2013-03-14 20:04:00,47.4,28.7,30.18,West,272,0.0,0.0,48,0.00,CLR,,0.00,0.0,WeatherDisplay:10.37,2013-03-15 00:04:00,
2013-03-14 20:09:00,46.9,28.2,30.18,West,271,0.0,0.0,48,0.00,CLR,,0.00,0.0,WeatherDisplay:10.37,2013-03-15 00:09:00,
2013-03-14 20:14:00,46.5,28.3,30.18,West,271,0.0,0.0,49,0.00,CLR,,0.00,0.0,WeatherDisplay:10.37,2013-03-15 00:14:00,
2013-03-14 20:19:00,46.1,29.0,30.18,West,271,0.0,0.0,51,0.00,CLR,,0.00,0.0,WeatherDisplay:10.37,2013-03-15 00:19:00,
2013-03-14 20:24:00,45.7,28.6,30.18,West,271,0.0,0.0,51,0.00,CLR,,0.00,0.0,WeatherDisplay:10.37,2013-03-15 00:24:00,
2013-03-14 20:29:00,45.3,29.2,30.18,West,272,0.0,0.0,53,0.00,CLR,,0.00,0.0,WeatherDisplay:10.37,2013-03-15 00:29:00,
2013-03-14 20:34:00,44.9,28.8,30.18,West,272,0.0,0.0,53,0.00,CLR,,0.00,0.0,WeatherDisplay:10.37,2013-03-15 00:34:00,
2013-03-14 20:39:00,44.5,29.3,30.18,West,271,0.0,0.0,55,0.00,CLR,,0.00,0.0,WeatherDisplay:10.37,2013-03-15 00:39:00,
2013-03-14 20:44:00,44.2,29.5,30.18,West,271,0.0,0.0,56,0.00,CLR,,0.00,0.0,WeatherDisplay:10.37,2013-03-15 00:44:00,
2013-03-14 20:49:00,43.9,30.1,30.18,West,271,0.0,0.0,58,0.00,CLR,,0.00,0.0,WeatherDisplay:10.37,2013-03-15 00:49:00,
2013-03-14 20:54:00,43.6,30.2,30.18,West,271,0.0,0.0,59,0.00,CLR,,0.00,0.0,WeatherDisplay:10.37,2013-03-15 00:54:00,
2013-03-14 20:59:00,43.2,29.8,30.18,West,271,0.0,0.0,59,0.00,CLR,,0.00,0.0,WeatherDisplay:10.37,2013-03-15 00:59:00,
2013-03-14 21:04:00,42.9,30.4,30.18,West,271,0.0,0.0,61,0.00,CLR,,0.00,0.0,WeatherDisplay:10.37,2013-03-15 01:04:00,
2013-03-14 21:09:00,42.6,30.9,30.18,West,271,0.0,0.0,63,0.00,CLR,,0.00,0.0,WeatherDisplay:10.37,2013-03-15 01:09:00,
2013-03-14 21:14:00,42.4,31.5,30.18,West,271,0.0,0.0,65,0.00,CLR,,0.00,0.0,WeatherDisplay:10.37,2013-03-15 01:14:00,
2013-03-14 21:19:00,42.2,31.3,30.18,West,270,0.0,0.0,65,0.00,CLR,,0.00,0.0,WeatherDisplay:10.37,2013-03-15 01:19:00,
2013-03-14 21:24:00,41.9,31.4,30.18,West,271,0.0,0.0,66,0.00,CLR,,0.00,0.0,WeatherDisplay:10.37,2013-03-15 01:24:00,
2013-03-14 21:29:00,41.8,31.3,30.18,West,270,0.0,0.0,66,0.00,CLR,,0.00,0.0,WeatherDisplay:10.37,2013-03-15 01:29:00,
2013-03-14 21:34:00,41.6,31.8,30.18,West,271,0.0,0.0,68,0.00,CLR,,0.00,0.0,WeatherDisplay:10.37,2013-03-15 01:34:00,
2013-03-14 21:39:00,41.4,32.0,30.17,West,271,0.0,0.0,69,0.00,CLR,,0.00,0.0,WeatherDisplay:10.37,2013-03-15 01:39:00,
2013-03-14 21:44:00,41.2,31.8,30.17,West,271,0.0,0.0,69,0.00,CLR,,0.00,0.0,WeatherDisplay:10.37,2013-03-15 01:44:00,
2013-03-14 21:49:00,41.0,32.0,30.17,West,271,0.0,0.0,70,0.00,CLR,,0.00,0.0,WeatherDisplay:10.37,2013-03-15 01:49:00,
2013-03-14 21:54:00,40.7,31.7,30.17,West,271,0.0,0.0,70,0.00,CLR,,0.00,0.0,WeatherDisplay:10.37,2013-03-15 01:54:00,
2013-03-14 21:59:00,40.6,31.9,30.17,West,271,0.0,0.0,71,0.00,CLR,,0.00,0.0,WeatherDisplay:10.37,2013-03-15 01:59:00,
2013-03-14 22:04:00,40.4,31.7,30.18,West,271,0.0,0.0,71,0.00,CLR,,0.00,0.0,WeatherDisplay:10.37,2013-03-15 02:04:00,
2013-03-14 22:09:00,40.1,31.4,30.18,West,271,0.0,0.0,71,0.00,CLR,,0.00,0.0,WeatherDisplay:10.37,2013-03-15 02:09:00,
2013-03-14 22:14:00,40.0,31.7,30.18,West,271,0.0,0.0,72,0.00,CLR,,0.00,0.0,WeatherDisplay:10.37,2013-03-15 02:14:00,
2013-03-14 22:19:00,39.8,31.8,30.18,West,271,0.0,0.0,73,0.00,CLR,,0.00,0.0,WeatherDisplay:10.37,2013-03-15 02:19:00,
2013-03-14 22:24:00,39.6,31.7,30.18,West,271,0.0,0.0,73,0.00,CLR,,0.00,0.0,WeatherDisplay:10.37,2013-03-15 02:24:00,
2013-03-14 22:29:00,39.5,31.6,30.18,West,271,0.0,0.0,73,0.00,CLR,,0.00,0.0,WeatherDisplay:10.37,2013-03-15 02:29:00,
2013-03-14 22:34:00,39.3,31.7,30.17,West,271,0.0,0.0,74,0.00,CLR,,0.00,0.0,WeatherDisplay:10.37,2013-03-15 02:34:00,
2013-03-14 22:39:00,39.2,31.6,30.18,West,271,0.0,0.0,74,0.00,CLR,,0.00,0.0,WeatherDisplay:10.37,2013-03-15 02:39:00,
2013-03-14 22:44:00,39.1,31.8,30.18,West,271,0.0,0.0,75,0.00,CLR,,0.00,0.0,WeatherDisplay:10.37,2013-03-15 02:44:00,
2013-03-14 22:49:00,39.0,31.7,30.18,West,271,0.0,0.0,75,0.00,CLR,,0.00,0.0,WeatherDisplay:10.37,2013-03-15 02:49:00,
2013-03-14 22:54:00,38.9,32.0,30.18,West,271,0.0,0.0,76,0.00,CLR,,0.00,0.0,WeatherDisplay:10.37,2013-03-15 02:54:00,
2013-03-14 22:59:00,38.8,32.2,30.18,West,270,0.0,0.0,77,0.00,CLR,,0.00,0.0,WeatherDisplay:10.37,2013-03-15 02:59:00,
2013-03-14 23:04:00,38.7,32.1,30.18,West,271,0.0,0.0,77,0.00,CLR,,0.00,0.0,WeatherDisplay:10.37,2013-03-15 03:04:00,
2013-03-14 23:09:00,38.6,32.6,30.18,West,271,0.0,0.0,79,0.00,CLR,,0.00,0.0,WeatherDisplay:10.37,2013-03-15 03:09:00,
2013-03-14 23:14:00,38.6,32.6,30.18,West,271,0.0,0.0,79,0.00,CLR,,0.00,0.0,WeatherDisplay:10.37,2013-03-15 03:14:00,
2013-03-14 23:19:00,38.6,32.6,30.19,West,271,0.0,0.0,79,0.00,CLR,,0.00,0.0,WeatherDisplay:10.37,2013-03-15 03:19:00,
2013-03-14 23:24:00,38.7,32.7,30.19,West,271,0.0,0.0,79,0.00,CLR,,0.00,0.0,WeatherDisplay:10.37,2013-03-15 03:24:00,
2013-03-14 23:29:00,38.6,32.6,30.19,West,271,0.0,0.0,79,0.00,CLR,,0.00,0.0,WeatherDisplay:10.37,2013-03-15 03:29:00,
2013-03-14 23:34:00,38.5,32.9,30.20,West,271,0.0,0.0,80,0.00,CLR,,0.00,0.0,WeatherDisplay:10.37,2013-03-15 03:34:00,
2013-03-14 23:39:00,38.5,32.9,30.20,West,271,0.0,0.0,80,0.00,CLR,,0.00,0.0,WeatherDisplay:10.37,2013-03-15 03:39:00,
2013-03-14 23:44:00,38.4,32.8,30.20,West,271,0.0,0.0,80,0.00,CLR,,0.00,0.0,WeatherDisplay:10.37,2013-03-15 03:44:00,
2013-03-14 23:49:00,38.3,33.0,30.20,West,271,1.2,1.2,81,0.00,CLR,,0.00,0.0,WeatherDisplay:10.37,2013-03-15 03:49:00,
2013-03-14 23:54:00,38.3,33.0,30.20,West,271,0.0,0.0,81,0.00,CLR,,0.00,0.0,WeatherDisplay:10.37,2013-03-15 03:54:00,
2013-03-14 23:59:00,38.3,33.0,30.20,West,271,0.0,0.0,81,0.00,CLR,,0.00,0.0,WeatherDisplay:10.37,2013-03-15 03:59:00,